createdAt,value
2018-04-13T00:01:25.839Z,93.70
2018-04-13T00:04:29.153Z,93.60
2018-04-13T00:07:33.225Z,93.70
2018-04-13T00:10:36.534Z,93.60
2018-04-13T00:13:39.838Z,93.80
2018-04-13T00:16:43.177Z,93.80
2018-04-13T00:19:46.473Z,93.90
2018-04-13T00:22:49.789Z,94.00
2018-04-13T00:25:53.086Z,93.70
2018-04-13T00:28:56.405Z,93.80
2018-04-13T00:31:59.696Z,94.00
2018-04-13T00:35:08.714Z,94.00
2018-04-13T00:38:12.070Z,93.90
2018-04-13T00:41:15.333Z,93.90
2018-04-13T00:44:18.653Z,93.90
2018-04-13T00:47:21.949Z,93.90
2018-04-13T00:50:25.262Z,94.00
2018-04-13T00:53:30.154Z,94.00
2018-04-13T00:56:33.490Z,94.00
2018-04-13T00:59:37.556Z,94.10
2018-04-13T01:02:40.889Z,94.10
2018-04-13T01:05:44.957Z,94.00
2018-04-13T01:08:49.041Z,93.90
2018-04-13T01:11:52.344Z,93.90
2018-04-13T01:14:55.665Z,94.10
2018-04-13T01:17:58.980Z,94.00
2018-04-13T01:21:02.278Z,94.40
2018-04-13T01:24:05.597Z,93.90
2018-04-13T01:27:08.897Z,94.00
2018-04-13T01:30:12.997Z,94.10
2018-04-13T01:33:16.298Z,94.00
2018-04-13T01:36:19.621Z,94.10
2018-04-13T01:39:23.716Z,94.30
2018-04-13T01:42:27.014Z,94.30
2018-04-13T01:45:30.327Z,94.10
2018-04-13T01:48:34.389Z,94.10
2018-04-13T01:51:37.710Z,94.00
2018-04-13T01:54:41.012Z,94.00
2018-04-13T01:57:44.330Z,94.10
2018-04-13T02:00:48.424Z,94.20
2018-04-13T02:03:51.756Z,94.10
2018-04-13T02:06:55.061Z,94.60
2018-04-13T02:09:59.150Z,94.70
2018-04-13T02:13:03.233Z,94.80
2018-04-13T02:16:06.583Z,94.80
2018-04-13T02:19:09.866Z,94.70
2018-04-13T02:22:13.162Z,94.70
2018-04-13T02:25:16.477Z,94.70
2018-04-13T02:28:19.773Z,94.90
2018-04-13T02:31:23.084Z,94.90
2018-04-13T02:34:26.494Z,95.20
2018-04-13T02:37:29.722Z,95.40
2018-04-13T02:40:33.794Z,95.60
2018-04-13T02:43:37.112Z,95.40
2018-04-13T02:46:40.425Z,95.50
2018-04-13T02:49:43.749Z,95.50
2018-04-13T02:52:47.074Z,95.60
2018-04-13T02:55:50.373Z,95.50
2018-04-13T02:58:54.463Z,95.60
2018-04-13T03:01:57.768Z,95.50
2018-04-13T03:05:01.090Z,95.80
2018-04-13T03:08:04.385Z,95.60
2018-04-13T03:11:07.705Z,95.60
2018-04-13T03:14:11.005Z,95.80
2018-04-13T03:17:14.330Z,95.60
2018-04-13T03:20:17.632Z,95.70
2018-04-13T03:23:21.809Z,95.60
2018-04-13T03:26:25.143Z,95.50
2018-04-13T03:29:28.448Z,95.60
2018-04-13T03:32:31.782Z,95.60
2018-04-13T03:35:35.083Z,95.80
2018-04-13T03:38:38.421Z,95.80
2018-04-13T03:41:42.515Z,95.70
2018-04-13T03:44:45.830Z,95.70
2018-04-13T03:47:49.914Z,95.60
2018-04-13T03:50:53.240Z,95.60
2018-04-13T03:53:57.315Z,95.50
2018-04-13T03:57:00.652Z,95.50
2018-04-13T04:00:04.717Z,95.50
2018-04-13T04:03:08.046Z,95.50
2018-04-13T04:06:11.344Z,95.70
2018-04-13T04:09:14.666Z,95.70
2018-04-13T04:12:17.976Z,95.80
2018-04-13T04:15:21.297Z,96.00
2018-04-13T04:18:24.606Z,96.50
2018-04-13T04:21:45.548Z,96.80
2018-04-13T04:25:07.154Z,97.30
2018-04-13T04:28:10.453Z,97.20
2018-04-13T04:31:14.620Z,97.40
2018-04-13T04:34:17.925Z,97.50
2018-04-13T04:37:21.249Z,97.60
2018-04-13T04:40:24.549Z,97.90
2018-04-13T04:43:27.890Z,97.90
2018-04-13T04:46:31.201Z,98.00
2018-04-13T04:49:35.290Z,98.10
2018-04-13T04:52:39.362Z,98.10
2018-04-13T04:55:42.693Z,98.00
2018-04-13T04:58:46.782Z,98.20
2018-04-13T05:01:50.121Z,98.10
2018-04-13T05:04:53.450Z,98.30
2018-04-13T05:07:56.758Z,98.30
2018-04-13T05:11:00.090Z,98.30
2018-04-13T05:14:04.156Z,98.20
2018-04-13T05:17:07.486Z,98.10
2018-04-13T05:20:10.805Z,98.20
2018-04-13T05:23:14.194Z,98.40
2018-04-13T05:26:17.517Z,98.40
2018-04-13T05:29:20.899Z,98.50
2018-04-13T05:32:24.168Z,98.50
2018-04-13T05:35:27.478Z,98.50
2018-04-13T05:38:30.806Z,98.40
2018-04-13T05:41:34.133Z,98.50
2018-04-13T05:44:37.453Z,98.40
2018-04-13T05:47:40.757Z,98.40
2018-04-13T05:50:44.081Z,98.30
2018-04-13T05:53:48.174Z,98.40
2018-04-13T05:56:51.493Z,98.40
2018-04-13T05:59:54.801Z,98.60
2018-04-13T06:02:58.129Z,98.70
2018-04-13T06:06:01.472Z,98.60
2018-04-13T06:09:06.378Z,98.80
2018-04-13T06:12:09.717Z,98.80
2018-04-13T06:15:13.018Z,98.70
2018-04-13T06:18:16.333Z,98.50
2018-04-13T06:21:19.660Z,98.40
2018-04-13T06:24:23.008Z,98.50
2018-04-13T06:27:27.070Z,98.80
2018-04-13T06:30:30.369Z,98.80
2018-04-13T06:33:33.697Z,99.00
2018-04-13T06:36:37.781Z,99.00
2018-04-13T06:39:41.078Z,99.00
2018-04-13T06:42:44.397Z,98.90
2018-04-13T06:45:47.718Z,99.10
2018-04-13T06:48:51.043Z,99.00
2018-04-13T06:51:54.373Z,98.80
2018-04-13T06:54:57.673Z,98.80
2018-04-13T06:58:00.997Z,98.80
2018-04-13T07:01:05.072Z,98.70
2018-04-13T07:04:08.413Z,98.60
2018-04-13T07:07:11.718Z,98.60
2018-04-13T07:10:15.042Z,98.70
2018-04-13T07:13:18.349Z,98.60
2018-04-13T07:16:21.674Z,98.70
2018-04-13T07:19:24.973Z,98.30
2018-04-13T07:22:28.293Z,98.30
2018-04-13T07:25:31.616Z,98.30
2018-04-13T07:28:34.920Z,98.30
2018-04-13T07:31:38.243Z,98.30
2018-04-13T07:34:41.548Z,98.10
2018-04-13T07:37:44.869Z,98.40
2018-04-13T07:40:48.934Z,98.00
2018-04-13T07:43:52.456Z,98.00
2018-04-13T07:46:56.352Z,97.90
2018-04-13T07:49:59.699Z,97.90
2018-04-13T07:53:03.753Z,97.70
2018-04-13T07:56:07.071Z,97.70
2018-04-13T07:59:10.397Z,97.80
2018-04-13T08:02:14.457Z,97.30
2018-04-13T08:05:17.789Z,97.30
2018-04-13T08:08:21.092Z,96.90
2018-04-13T08:11:24.425Z,97.00
2018-04-13T08:14:27.742Z,97.10
2018-04-13T08:17:31.078Z,96.80
2018-04-13T08:20:34.408Z,97.10
2018-04-13T08:23:37.709Z,96.90
2018-04-13T08:26:41.041Z,96.90
2018-04-13T08:29:44.379Z,96.80
2018-04-13T08:32:47.672Z,97.00
2018-04-13T08:35:51.749Z,96.50
2018-04-13T08:38:55.074Z,96.50
2018-04-13T08:41:58.385Z,96.70
2018-04-13T08:45:02.477Z,96.60
2018-04-13T08:48:05.777Z,96.60
2018-04-13T08:51:09.105Z,96.20
2018-04-13T08:54:12.508Z,96.60
2018-04-13T08:57:15.761Z,96.50
2018-04-13T09:00:19.090Z,95.80
2018-04-13T09:03:22.401Z,95.00
2018-04-13T09:06:25.799Z,94.90
2018-04-13T09:09:29.057Z,94.10
2018-04-13T09:12:33.163Z,94.90
2018-04-13T09:15:36.478Z,94.90
2018-04-13T09:18:40.581Z,94.70
2018-04-13T09:21:43.908Z,94.70
2018-04-13T09:24:47.241Z,94.60
2018-04-13T09:27:50.576Z,94.20
2018-04-13T09:30:54.661Z,94.30
2018-04-13T09:33:57.997Z,94.20
2018-04-13T09:37:02.069Z,94.60
2018-04-13T09:40:05.402Z,94.60
2018-04-13T09:43:09.482Z,92.80
2018-04-13T09:46:12.848Z,92.50
2018-04-13T09:49:16.901Z,92.40
2018-04-13T09:52:20.233Z,92.40
2018-04-13T09:55:23.546Z,92.50
2018-04-13T09:58:26.868Z,92.30
2018-04-13T10:01:35.805Z,91.90
2018-04-13T10:04:40.906Z,92.00
2018-04-13T10:07:44.232Z,92.20
2018-04-13T10:10:47.566Z,92.10
2018-04-13T10:13:51.657Z,93.30
2018-04-13T10:16:54.991Z,93.30
2018-04-13T10:19:59.060Z,92.90
2018-04-13T10:23:02.389Z,92.90
2018-04-13T10:26:05.721Z,92.30
2018-04-13T10:29:09.050Z,92.20
2018-04-13T10:32:12.356Z,92.30
2018-04-13T10:35:15.688Z,92.40
2018-04-13T10:38:19.764Z,92.50
2018-04-13T10:41:23.086Z,92.50
2018-04-13T10:44:26.423Z,92.40
2018-04-13T10:47:29.757Z,91.90
2018-04-13T10:50:33.101Z,92.10
2018-04-13T10:53:37.174Z,92.50
2018-04-13T10:56:40.517Z,92.50
2018-04-13T10:59:43.833Z,92.20
2018-04-13T11:02:47.181Z,92.50
2018-04-13T11:05:50.493Z,92.10
2018-04-13T11:08:54.587Z,91.60
2018-04-13T11:11:57.897Z,91.60
2018-04-13T11:15:01.222Z,91.90
2018-04-13T11:18:04.529Z,92.10
2018-04-13T11:21:07.854Z,92.00
2018-04-13T11:24:11.178Z,92.00
2018-04-13T11:27:14.498Z,91.50
2018-04-13T11:30:17.829Z,91.90
2018-04-13T11:33:21.864Z,91.20
2018-04-13T11:36:25.194Z,90.90
2018-04-13T11:39:28.518Z,91.20
2018-04-13T11:42:31.841Z,91.30
2018-04-13T11:45:35.171Z,91.40
2018-04-13T11:48:38.501Z,91.50
2018-04-13T11:51:42.497Z,91.60
2018-04-13T11:54:46.574Z,92.00
2018-04-13T11:57:49.917Z,92.00
2018-04-13T12:00:53.249Z,91.70
2018-04-13T12:03:56.573Z,91.80
2018-04-13T12:06:59.893Z,92.70
2018-04-13T12:10:03.983Z,94.30
2018-04-13T12:13:07.329Z,94.30
2018-04-13T12:16:11.405Z,94.10
2018-04-13T12:19:14.713Z,94.00
2018-04-13T12:22:18.812Z,93.80
2018-04-13T12:25:22.121Z,93.80
2018-04-13T12:28:25.444Z,95.30
2018-04-13T12:31:28.749Z,95.60
2018-04-13T12:34:32.079Z,94.60
2018-04-13T12:37:35.410Z,94.50
2018-04-13T12:40:39.513Z,93.30
2018-04-13T12:43:42.836Z,93.20
2018-04-13T12:46:46.909Z,93.30
2018-04-13T12:49:50.236Z,93.30
2018-04-13T12:52:54.311Z,92.70
2018-04-13T12:55:57.693Z,92.70
2018-04-13T12:59:00.981Z,92.70
2018-04-13T13:02:04.314Z,92.60
2018-04-13T13:05:07.629Z,92.60
2018-04-13T13:08:10.957Z,93.30
2018-04-13T13:11:14.289Z,94.60
2018-04-13T13:14:17.614Z,95.10
2018-04-13T13:17:20.945Z,95.70
2018-04-13T13:20:24.300Z,95.70
2018-04-13T13:23:27.614Z,95.20
2018-04-13T13:26:30.945Z,95.50
2018-04-13T13:29:34.273Z,95.60
2018-04-13T13:32:37.581Z,96.10
2018-04-13T13:35:40.909Z,95.70
2018-04-13T13:38:44.982Z,96.70
2018-04-13T13:41:48.330Z,96.60
2018-04-13T13:44:52.414Z,96.70
2018-04-13T13:47:55.743Z,96.70
2018-04-13T13:50:59.848Z,96.70
2018-04-13T13:54:03.154Z,96.60
2018-04-13T13:57:07.250Z,96.70
2018-04-13T14:00:10.569Z,96.70
2018-04-13T14:03:13.910Z,96.80
2018-04-13T14:06:17.221Z,96.90
2018-04-13T14:09:20.557Z,97.10
2018-04-13T14:12:23.870Z,96.90
2018-04-13T14:15:27.193Z,97.00
2018-04-13T14:18:30.500Z,96.80
2018-04-13T14:21:33.842Z,97.00
2018-04-13T14:24:37.953Z,97.00
2018-04-13T14:27:42.049Z,96.80
2018-04-13T14:30:45.400Z,96.80
2018-04-13T14:33:48.704Z,97.30
2018-04-13T14:36:52.043Z,96.90
2018-04-13T14:39:56.123Z,97.00
2018-04-13T14:42:59.477Z,96.80
2018-04-13T14:46:02.788Z,97.20
2018-04-13T14:49:06.125Z,96.50
2018-04-13T14:52:09.446Z,96.30
2018-04-13T14:55:13.547Z,96.40
2018-04-13T14:58:16.862Z,96.30
2018-04-13T15:01:20.958Z,96.10
2018-04-13T15:04:24.269Z,96.10
2018-04-13T15:07:27.597Z,96.00
2018-04-13T15:10:31.005Z,96.40
2018-04-13T15:13:34.328Z,96.50
2018-04-13T15:16:37.649Z,96.50
2018-04-13T15:19:40.970Z,96.50
2018-04-13T15:22:45.064Z,96.70
2018-04-13T15:25:48.385Z,96.60
2018-04-13T15:28:51.738Z,96.20
2018-04-13T15:31:55.049Z,96.60
2018-04-13T15:34:58.378Z,96.70
2018-04-13T15:38:01.693Z,96.50
2018-04-13T15:41:05.023Z,96.60
2018-04-13T15:44:08.332Z,96.70
2018-04-13T15:47:11.653Z,97.40
2018-04-13T15:50:14.965Z,96.70
2018-04-13T15:53:18.285Z,97.00
2018-04-13T15:56:21.631Z,97.00
2018-04-13T15:59:24.945Z,96.80
2018-04-13T16:02:29.033Z,96.80
2018-04-13T16:05:32.366Z,96.80
2018-04-13T16:08:35.702Z,97.10
2018-04-13T16:11:39.010Z,96.70
2018-04-13T16:14:42.354Z,96.20
2018-04-13T16:17:45.678Z,96.00
2018-04-13T16:20:49.021Z,95.70
2018-04-13T16:23:52.333Z,95.30
2018-04-13T16:26:56.421Z,95.50
2018-04-13T16:29:59.770Z,95.50
2018-04-13T16:33:03.086Z,95.50
2018-04-13T16:36:06.419Z,95.60
2018-04-13T16:39:09.733Z,95.70
2018-04-13T16:42:13.841Z,95.60
2018-04-13T16:45:17.945Z,95.20
2018-04-13T16:48:21.271Z,95.20
2018-04-13T16:51:24.577Z,95.10
2018-04-13T16:54:27.906Z,95.20
2018-04-13T16:57:31.218Z,95.30
2018-04-13T17:00:34.556Z,94.80
2018-04-13T17:03:37.885Z,94.80
2018-04-13T17:06:41.202Z,94.70
2018-04-13T17:09:44.525Z,94.70
2018-04-13T17:12:48.601Z,94.90
2018-04-13T17:15:51.933Z,94.90
2018-04-13T17:18:55.244Z,94.80
2018-04-13T17:21:58.566Z,95.30
2018-04-13T17:25:01.891Z,95.40
2018-04-13T17:28:05.210Z,94.90
2018-04-13T17:31:08.534Z,94.70
2018-04-13T17:34:12.624Z,94.20
2018-04-13T17:37:15.929Z,94.20
2018-04-13T17:40:19.266Z,94.60
2018-04-13T17:43:22.569Z,94.70
2018-04-13T17:46:25.889Z,94.80
2018-04-13T17:49:29.189Z,94.80
2018-04-13T17:52:32.519Z,94.90
2018-04-13T17:55:36.607Z,94.90
2018-04-13T17:58:39.910Z,94.90
2018-04-13T18:01:43.236Z,95.00
2018-04-13T18:04:47.321Z,95.10
2018-04-13T18:07:50.648Z,95.10
2018-04-13T18:10:54.720Z,95.30
2018-04-13T18:13:58.041Z,95.30
2018-04-13T18:17:02.117Z,95.70
2018-04-13T18:20:05.438Z,95.50
2018-04-13T18:23:08.737Z,95.20
2018-04-13T18:26:12.049Z,95.10
2018-04-13T18:29:16.116Z,95.30
2018-04-13T18:32:19.445Z,95.30
2018-04-13T18:35:22.768Z,95.40
2018-04-13T18:38:26.070Z,95.20
2018-04-13T18:41:29.397Z,95.40
2018-04-13T18:44:32.699Z,95.40
2018-04-13T18:47:36.054Z,95.20
2018-04-13T18:50:40.133Z,95.10
2018-04-13T18:53:43.454Z,95.10
2018-04-13T18:56:47.524Z,95.20
2018-04-13T18:59:50.868Z,95.20
2018-04-13T19:02:54.929Z,95.30
2018-04-13T19:05:58.253Z,95.20
2018-04-13T19:09:01.573Z,95.50
2018-04-13T19:12:04.877Z,95.30
2018-04-13T19:15:08.210Z,95.00
2018-04-13T19:18:11.527Z,95.10
2018-04-13T19:21:14.874Z,95.10
2018-04-13T19:24:18.192Z,95.10
2018-04-13T19:27:21.508Z,95.00
2018-04-13T19:30:24.804Z,94.60
2018-04-13T19:33:28.132Z,95.20
2018-04-13T19:36:31.433Z,95.00
2018-04-13T19:39:34.758Z,94.90
2018-04-13T19:42:38.098Z,94.70
2018-04-13T19:45:41.400Z,94.80
2018-04-13T19:48:44.717Z,94.90
2018-04-13T19:51:48.018Z,95.10
2018-04-13T19:54:51.352Z,95.00
2018-04-13T19:57:54.693Z,94.90
2018-04-13T20:00:57.989Z,95.20
2018-04-13T20:04:01.322Z,95.20
2018-04-13T20:07:05.394Z,95.00
2018-04-13T20:10:08.709Z,95.00
2018-04-13T20:13:12.013Z,95.10
2018-04-13T20:16:21.881Z,94.90
2018-04-13T20:19:25.977Z,95.10
2018-04-13T20:22:29.287Z,94.80
2018-04-13T20:25:33.381Z,94.70
2018-04-13T20:28:36.672Z,94.70
2018-04-13T20:31:40.001Z,94.70
2018-04-13T20:34:44.071Z,94.90
2018-04-13T20:37:47.398Z,94.90
2018-04-13T20:40:51.481Z,95.30
2018-04-13T20:43:54.807Z,95.30
2018-04-13T20:46:58.901Z,95.30
2018-04-13T20:50:02.224Z,95.30
2018-04-13T20:53:06.314Z,95.40
2018-04-13T20:56:09.634Z,95.30
2018-04-13T20:59:13.726Z,95.20
2018-04-13T21:02:17.020Z,95.20
2018-04-13T21:05:20.329Z,95.10
2018-04-13T21:08:23.645Z,95.20
2018-04-13T21:11:27.725Z,95.00
2018-04-13T21:14:31.053Z,95.30
2018-04-13T21:17:35.116Z,95.30
2018-04-13T21:20:38.436Z,95.30
2018-04-13T21:23:41.750Z,95.60
2018-04-13T21:26:45.838Z,95.60
2018-04-13T21:29:49.149Z,95.50
2018-04-13T21:32:53.253Z,95.80
2018-04-13T21:35:56.581Z,95.70
2018-04-13T21:39:00.661Z,95.80
2018-04-13T21:42:03.974Z,95.80
2018-04-13T21:45:07.303Z,96.10
2018-04-13T21:48:10.630Z,96.00
2018-04-13T21:51:13.945Z,96.50
2018-04-13T21:54:17.245Z,96.50
2018-04-13T21:57:20.564Z,96.50
2018-04-13T22:00:23.869Z,96.60
2018-04-13T22:03:27.949Z,97.00
2018-04-13T22:06:31.249Z,97.00
2018-04-13T22:09:34.571Z,97.00
2018-04-13T22:12:56.430Z,97.50
2018-04-13T22:15:59.753Z,97.40
2018-04-13T22:19:03.050Z,97.70
2018-04-13T22:22:06.371Z,97.90
2018-04-13T22:25:09.688Z,98.10
2018-04-13T22:28:13.749Z,98.40
2018-04-13T22:31:17.069Z,98.40
2018-04-13T22:34:20.373Z,98.20
2018-04-13T22:37:23.714Z,98.00
2018-04-13T22:40:27.013Z,97.90
2018-04-13T22:43:30.446Z,97.90
2018-04-13T22:46:33.768Z,98.00
2018-04-13T22:49:37.081Z,98.00
2018-04-13T22:52:41.189Z,97.90
2018-04-13T22:55:44.484Z,97.90
2018-04-13T22:58:47.801Z,98.20
2018-04-13T23:01:51.886Z,98.30
2018-04-13T23:04:55.210Z,98.30
2018-04-13T23:07:58.513Z,98.50
2018-04-13T23:11:01.809Z,98.70
2018-04-13T23:14:05.896Z,98.60
2018-04-13T23:17:09.203Z,98.60
2018-04-13T23:20:13.289Z,98.60
2018-04-13T23:23:16.591Z,98.60
2018-04-13T23:26:19.909Z,98.60
2018-04-13T23:29:23.968Z,98.60
2018-04-13T23:32:27.285Z,98.60
2018-04-13T23:35:30.590Z,98.60
2018-04-13T23:38:33.908Z,98.70
2018-04-13T23:41:37.992Z,98.90
2018-04-13T23:44:41.291Z,98.90
2018-04-13T23:47:44.609Z,98.90
2018-04-13T23:50:47.907Z,99.00
2018-04-13T23:53:51.237Z,98.80
2018-04-13T23:56:54.541Z,98.80
2018-04-13T23:59:57.857Z,98.80
